createdAt,value
2023-02-04T00:03:53.158Z,100.00
2023-02-04T00:07:55.885Z,100.00
2023-02-04T00:11:58.633Z,100.00
2023-02-04T00:16:03.081Z,100.00
2023-02-04T00:20:06.762Z,100.00
2023-02-04T00:24:09.982Z,100.00
2023-02-04T00:28:12.845Z,100.00
2023-02-04T00:32:17.145Z,100.00
2023-02-04T00:36:20.046Z,100.00
2023-02-04T00:40:22.916Z,100.00
2023-02-04T00:44:25.705Z,100.00
2023-02-04T00:48:30.104Z,100.00
2023-02-04T00:52:33.314Z,100.00
2023-02-04T00:56:36.310Z,100.00
2023-02-04T01:00:39.169Z,100.00
2023-02-04T01:04:43.379Z,100.00
2023-02-04T01:08:46.154Z,100.00
2023-02-04T01:12:48.969Z,100.00
2023-02-04T01:16:51.961Z,100.00
2023-02-04T01:20:56.376Z,100.00
2023-02-04T01:24:59.218Z,100.00
2023-02-04T01:29:17.606Z,100.00
2023-02-04T01:33:20.373Z,100.00
2023-02-04T01:37:24.555Z,100.00
2023-02-04T01:41:28.909Z,100.00
2023-02-04T01:45:35.430Z,100.00
2023-02-04T01:49:39.334Z,100.00
2023-02-04T01:53:44.048Z,100.00
2023-02-04T01:57:47.482Z,100.00
2023-02-04T02:01:52.277Z,100.00
2023-02-04T02:05:56.528Z,100.00
2023-02-04T02:10:04.075Z,100.00
2023-02-04T02:14:07.098Z,100.00
2023-02-04T02:18:11.078Z,100.00
2023-02-04T02:22:19.177Z,100.00
2023-02-04T02:26:25.585Z,100.00
2023-02-04T02:30:30.415Z,100.00
2023-02-04T02:34:34.990Z,100.00
2023-02-04T02:38:39.217Z,100.00
2023-02-04T02:42:44.964Z,100.00
2023-02-04T02:46:47.997Z,100.00
2023-02-04T02:50:51.854Z,100.00
2023-02-04T02:54:56.767Z,100.00
2023-02-04T02:59:14.213Z,100.00
2023-02-04T03:03:22.220Z,100.00
2023-02-04T03:07:25.444Z,100.00
2023-02-04T03:11:29.882Z,100.00
2023-02-04T03:15:35.016Z,100.00
2023-02-04T03:19:38.653Z,100.00
2023-02-04T03:23:41.765Z,100.00
2023-02-04T03:27:46.947Z,100.00
2023-02-04T03:31:51.174Z,100.00
2023-02-04T03:35:54.040Z,100.00
2023-02-04T03:39:56.830Z,100.00
2023-02-04T03:43:59.568Z,100.00
2023-02-04T03:48:03.749Z,100.00
2023-02-04T03:52:07.126Z,100.00
2023-02-04T03:56:10.449Z,100.00
2023-02-04T04:00:14.724Z,100.00
2023-02-04T04:04:19.132Z,100.00
2023-02-04T04:08:21.883Z,100.00
2023-02-04T04:12:24.706Z,100.00
2023-02-04T04:16:27.474Z,100.00
2023-02-04T04:20:31.952Z,100.00
2023-02-04T04:24:34.892Z,100.00
2023-02-04T04:28:37.601Z,100.00
2023-02-04T04:32:40.515Z,100.00
2023-02-04T04:36:44.666Z,100.00
2023-02-04T04:40:47.518Z,100.00
2023-02-04T04:44:50.224Z,100.00
2023-02-04T04:48:52.982Z,100.00
2023-02-04T04:52:57.123Z,100.00
2023-02-04T04:56:59.926Z,100.00
2023-02-04T05:01:02.771Z,100.00
2023-02-04T05:05:06.011Z,100.00
2023-02-04T05:09:10.529Z,100.00
2023-02-04T05:13:13.585Z,100.00
2023-02-04T05:17:16.530Z,100.00
2023-02-04T05:21:19.356Z,100.00
2023-02-04T05:25:24.081Z,100.00
2023-02-04T05:29:26.906Z,100.00
2023-02-04T05:33:29.688Z,100.00
2023-02-04T05:37:32.608Z,100.00
2023-02-04T05:41:36.746Z,100.00
2023-02-04T05:45:39.564Z,100.00
2023-02-04T05:49:42.390Z,100.00
2023-02-04T05:53:45.175Z,100.00
2023-02-04T05:57:49.284Z,100.00
2023-02-04T06:01:52.302Z,100.00
2023-02-04T06:05:55.338Z,100.00
2023-02-04T06:09:59.548Z,100.00
2023-02-04T06:14:05.032Z,100.00
2023-02-04T06:18:09.144Z,100.00
2023-02-04T06:22:11.874Z,100.00
2023-02-04T06:26:15.088Z,100.00
2023-02-04T06:30:20.066Z,100.00
2023-02-04T06:34:22.853Z,100.00
2023-02-04T06:38:25.654Z,100.00
2023-02-04T06:42:29.522Z,100.00
2023-02-04T06:46:34.516Z,100.00
2023-02-04T06:50:37.478Z,100.00
2023-02-04T06:54:40.304Z,100.00
2023-02-04T06:58:43.076Z,100.00
2023-02-04T07:02:47.276Z,100.00
2023-02-04T07:06:50.112Z,100.00
2023-02-04T07:10:54.580Z,100.00
2023-02-04T07:14:57.538Z,100.00
2023-02-04T07:19:01.707Z,100.00
2023-02-04T07:23:04.637Z,100.00
2023-02-04T07:27:07.648Z,100.00
2023-02-04T07:31:10.511Z,100.00
2023-02-04T07:35:14.680Z,100.00
2023-02-04T07:39:17.478Z,100.00
2023-02-04T07:43:20.209Z,100.00
2023-02-04T07:47:22.992Z,100.00
2023-02-04T07:51:27.914Z,100.00
2023-02-04T07:55:31.009Z,100.00
2023-02-04T07:59:33.798Z,100.00
2023-02-04T08:03:37.185Z,100.00
2023-02-04T08:07:41.351Z,100.00
2023-02-04T08:11:44.137Z,100.00
2023-02-04T08:15:46.962Z,100.00
2023-02-04T08:19:49.788Z,100.00
2023-02-04T08:23:53.925Z,100.00
2023-02-04T08:27:56.852Z,100.00
2023-02-04T08:31:59.773Z,100.00
2023-02-04T08:36:02.578Z,100.00
2023-02-04T08:40:07.746Z,100.00
2023-02-04T08:44:10.520Z,100.00
2023-02-04T08:48:13.261Z,100.00
2023-02-04T08:52:16.056Z,100.00
2023-02-04T08:56:20.600Z,100.00
2023-02-04T09:00:23.967Z,100.00
2023-02-04T09:04:28.353Z,100.00
2023-02-04T09:08:31.110Z,100.00
2023-02-04T09:12:35.967Z,100.00
2023-02-04T09:16:38.776Z,100.00
2023-02-04T09:20:41.654Z,100.00
2023-02-04T09:24:44.449Z,100.00
2023-02-04T09:28:48.679Z,100.00
2023-02-04T09:32:51.491Z,100.00
2023-02-04T09:36:54.285Z,100.00
2023-02-04T09:41:00.770Z,100.00
2023-02-04T09:45:05.478Z,100.00
2023-02-04T09:49:12.138Z,100.00
2023-02-04T09:53:18.158Z,100.00
2023-02-04T09:57:21.731Z,100.00
2023-02-04T10:01:29.115Z,100.00
2023-02-04T10:05:33.619Z,100.00
2023-02-04T10:09:36.427Z,100.00
2023-02-04T10:13:43.320Z,100.00
2023-02-04T10:17:48.599Z,100.00
2023-02-04T10:21:51.489Z,100.00
2023-02-04T10:25:54.395Z,100.00
2023-02-04T10:29:57.799Z,100.00
2023-02-04T10:34:24.917Z,100.00
2023-02-04T10:38:27.783Z,100.00
2023-02-04T10:42:32.093Z,100.00
2023-02-04T10:46:34.967Z,100.00
2023-02-04T10:50:39.067Z,100.00
2023-02-04T10:54:41.904Z,100.00
2023-02-04T10:58:45.129Z,100.00
2023-02-04T11:02:53.026Z,100.00
2023-02-04T11:06:57.158Z,100.00
2023-02-04T11:11:02.821Z,100.00
2023-02-04T11:15:07.299Z,100.00
2023-02-04T11:19:14.458Z,100.00
2023-02-04T11:23:32.780Z,100.00
2023-02-04T11:27:41.009Z,100.00
2023-02-04T11:31:57.069Z,100.00
2023-02-04T11:36:04.595Z,100.00
2023-02-04T11:40:24.433Z,100.00
2023-02-04T11:44:27.614Z,100.00
2023-02-04T11:48:30.555Z,100.00
2023-02-04T11:52:36.394Z,100.00
2023-02-04T11:56:41.666Z,100.00
2023-02-04T12:00:45.667Z,100.00
2023-02-04T12:04:56.452Z,100.00
2023-02-04T12:09:07.076Z,100.00
2023-02-04T12:13:25.044Z,100.00
2023-02-04T12:17:27.864Z,100.00
2023-02-04T12:21:31.019Z,100.00
2023-02-04T12:25:34.092Z,100.00
2023-02-04T12:29:38.360Z,100.00
2023-02-04T12:33:41.052Z,100.00
2023-02-04T12:37:44.203Z,100.00
2023-02-04T12:41:46.951Z,100.00
2023-02-04T12:45:51.088Z,100.00
2023-02-04T12:49:53.931Z,99.93
2023-02-04T12:53:56.682Z,98.72
2023-02-04T12:57:59.799Z,99.62
2023-02-04T13:02:04.074Z,99.42
2023-02-04T13:06:07.226Z,99.01
2023-02-04T13:10:10.886Z,98.78
2023-02-04T13:14:13.655Z,98.57
2023-02-04T13:18:18.302Z,98.58
2023-02-04T13:22:21.130Z,98.02
2023-02-04T13:26:23.985Z,97.82
2023-02-04T13:30:26.787Z,97.92
2023-02-04T13:34:30.954Z,97.94
2023-02-04T13:38:33.926Z,98.18
2023-02-04T13:42:38.275Z,98.54
2023-02-04T13:46:41.056Z,97.47
2023-02-04T13:50:45.220Z,97.20
2023-02-04T13:54:48.159Z,97.80
2023-02-04T13:58:51.198Z,97.93
2023-02-04T14:02:53.944Z,96.94
2023-02-04T14:06:58.179Z,97.18
2023-02-04T14:11:01.014Z,96.82
2023-02-04T14:15:04.073Z,96.16
2023-02-04T14:19:07.349Z,95.57
2023-02-04T14:23:12.033Z,96.16
2023-02-04T14:27:14.838Z,95.94
2023-02-04T14:31:17.779Z,94.12
2023-02-04T14:35:21.517Z,94.20
2023-02-04T14:39:25.674Z,93.42
2023-02-04T14:43:28.465Z,93.45
2023-02-04T14:47:31.303Z,93.92
2023-02-04T14:51:34.082Z,93.85
2023-02-04T14:55:38.214Z,93.54
2023-02-04T14:59:41.025Z,93.17
2023-02-04T15:03:43.953Z,93.81
2023-02-04T15:07:46.682Z,93.87
2023-02-04T15:11:51.145Z,94.97
2023-02-04T15:15:53.956Z,95.13
2023-02-04T15:19:57.086Z,94.90
2023-02-04T15:23:59.882Z,95.72
2023-02-04T15:28:04.097Z,95.13
2023-02-04T15:32:07.018Z,94.75
2023-02-04T15:36:09.974Z,94.80
2023-02-04T15:40:13.354Z,95.52
2023-02-04T15:44:17.514Z,94.87
2023-02-04T15:48:21.007Z,95.31
2023-02-04T15:52:25.416Z,95.78
2023-02-04T15:56:28.493Z,95.95
2023-02-04T16:07:07.966Z,96.55
2023-02-04T16:11:10.736Z,97.36
2023-02-04T16:15:13.592Z,97.86
2023-02-04T16:19:16.374Z,97.90
2023-02-04T16:23:20.513Z,98.19
2023-02-04T16:39:38.919Z,98.93
2023-02-04T16:43:41.649Z,98.71
2023-02-04T16:47:44.422Z,99.01
2023-02-04T16:51:47.408Z,99.07
2023-02-04T16:55:51.539Z,99.74
2023-02-04T16:59:54.262Z,100.00
2023-02-04T17:03:58.928Z,100.00
2023-02-04T17:08:01.702Z,100.00
2023-02-04T17:12:06.125Z,100.00
2023-02-04T17:16:08.872Z,100.00
2023-02-04T17:20:13.446Z,100.00
2023-02-04T17:24:16.166Z,100.00
2023-02-04T17:28:20.396Z,100.00
2023-02-04T17:32:23.306Z,100.00
2023-02-04T17:36:26.170Z,100.00
2023-02-04T17:40:29.006Z,100.00
2023-02-04T17:44:33.119Z,100.00
2023-02-04T17:48:36.023Z,100.00
2023-02-04T17:52:39.003Z,100.00
2023-02-04T17:56:41.739Z,100.00
2023-02-04T18:00:48.110Z,100.00
2023-02-04T18:04:51.281Z,100.00
2023-02-04T18:08:56.409Z,100.00
2023-02-04T18:13:00.214Z,100.00
2023-02-04T18:17:11.598Z,100.00
2023-02-04T18:21:20.905Z,100.00
2023-02-04T18:25:24.466Z,100.00
2023-02-04T18:29:33.709Z,100.00
2023-02-04T18:33:41.495Z,100.00
2023-02-04T18:37:48.884Z,100.00
2023-02-04T18:41:52.616Z,100.00
2023-02-04T18:46:00.135Z,100.00
2023-02-04T18:50:23.366Z,100.00
2023-02-04T18:54:34.812Z,100.00
2023-02-04T18:58:40.939Z,100.00
2023-02-04T19:02:49.264Z,100.00
2023-02-04T19:06:54.943Z,100.00
2023-02-04T19:10:59.362Z,100.00
2023-02-04T19:15:02.346Z,100.00
2023-02-04T19:19:23.857Z,100.00
2023-02-04T19:23:27.943Z,100.00
2023-02-04T19:27:36.184Z,100.00
2023-02-04T19:31:38.957Z,100.00
2023-02-04T19:35:43.543Z,100.00
2023-02-04T19:39:50.698Z,100.00
2023-02-04T19:43:57.999Z,100.00
2023-02-04T19:48:02.523Z,100.00
2023-02-04T19:52:20.258Z,100.00
2023-02-04T19:56:36.461Z,100.00
2023-02-04T20:00:46.692Z,100.00
2023-02-04T20:04:54.025Z,100.00
2023-02-04T20:09:01.929Z,100.00
2023-02-04T20:13:20.112Z,100.00
2023-02-04T20:17:45.822Z,100.00
2023-02-04T20:22:03.821Z,100.00
2023-02-04T22:03:46.765Z,100.00
2023-02-04T22:07:50.255Z,100.00
2023-02-04T22:11:53.088Z,100.00
2023-02-04T22:15:55.855Z,100.00
2023-02-04T22:20:00.194Z,100.00
2023-02-04T22:24:02.980Z,100.00
2023-02-04T22:28:05.836Z,100.00
2023-02-04T22:32:08.985Z,100.00
2023-02-04T22:36:13.191Z,100.00
2023-02-04T22:40:15.924Z,100.00
2023-02-04T22:44:18.773Z,100.00
2023-02-04T22:48:21.555Z,100.00
2023-02-04T22:52:25.745Z,100.00
2023-02-04T22:56:28.804Z,100.00
2023-02-04T23:00:31.794Z,100.00
2023-02-04T23:04:34.605Z,100.00
2023-02-04T23:08:38.834Z,100.00
2023-02-04T23:12:41.573Z,100.00
2023-02-04T23:16:44.330Z,100.00
2023-02-04T23:20:47.147Z,100.00
2023-02-04T23:24:51.709Z,100.00
2023-02-04T23:28:54.452Z,100.00
2023-02-04T23:32:57.254Z,100.00
2023-02-04T23:37:00.099Z,100.00
2023-02-04T23:41:04.238Z,100.00
2023-02-04T23:45:07.834Z,100.00
2023-02-04T23:49:10.913Z,100.00
2023-02-04T23:53:13.787Z,100.00
2023-02-04T23:57:17.858Z,100.00
